Lecueder, Argentina
Current Conditions -  °F | °C
As of 7:00 AM on Wednesday 22 Oct 2014 (Local Time) from SAOC Reporting Station
Clear Clear  
Wind Chill: 64°   Ceiling: Unl
Heat Index: 64°   Visibility: 6mi
Dew Point: 52°   Wind: 14mph
Humidity: 64%   Direction: 320°NW
Pressure: 29.91"   Gusts: NA
Location:  34.42°S, 64.86°W
Report Text: SAOC 221000Z 32012KT CAVOK 18/11 Q1013
Loading
Personal Weather Stations






























Interactive Weather Map New forecast layout! Learn more

10-Day Weather Forecast

Advertisements
Track Severe Weather on mobile